Terminal Aerodrome Forecast
Issued by NWS

Home | Current Version | Previous Version | Graphics & Text | Print | Product List | Glossary On
Versions: 1 2 3 4 5 6 7 8 9 10 11 12 13 14 15 16 17 18
364
FTUS43 KLSX 031120
TAFSUS
TAF
KSUS 031120Z 0312/0412 00000KT P6SM BKN250
     FM040800 VRB03KT 6SM -RA OVC060=

USA.gov is the U.S. government's official web portal to all federal, state and local government web resources and services.